Time;durP1;ratioP1;P1;durP2;ratioP2;P2;SDS_P1;SDS_P2;PMS_P1;PMS_P2;Temp;Humidity;BMP_temperature;BMP_pressure;BME280_temperature;BME280_humidity;BME280_pressure;Samples;Min_cycle;Max_cycle;Signal;HPM_P1;HPM_P2
2022/10/26 00:02:25;;;;;;;13.47;6.13;;;12.40;99.90;;;;;;5104385;28;20527;-77
2022/10/26 00:04:51;;;;;;;8.77;4.83;;;12.40;99.90;;;;;;5096962;28;20409;-76
2022/10/26 00:07:16;;;;;;;10.77;5.10;;;12.50;99.90;;;;;;5096595;28;20436;-76
2022/10/26 00:09:42;;;;;;;7.82;4.32;;;12.50;96.90;;;;;;5096539;28;20378;-76
2022/10/26 00:12:07;;;;;;;13.97;4.90;;;12.60;96.50;;;;;;5097720;28;20378;-75
2022/10/26 00:14:33;;;;;;;9.03;4.90;;;12.60;95.60;;;;;;5095951;28;20388;-77
2022/10/26 00:16:59;;;;;;;8.57;4.60;;;12.70;94.90;;;;;;5077057;28;20396;-76
2022/10/26 00:19:25;;;;;;;8.20;4.57;;;12.70;93.90;;;;;;5078208;28;20389;-76
2022/10/26 00:21:51;;;;;;;13.43;5.07;;;12.70;93.00;;;;;;5094823;28;20378;-74
2022/10/26 00:24:17;;;;;;;10.20;4.70;;;12.70;93.70;;;;;;5094975;28;20381;-75
2022/10/26 00:26:43;;;;;;;10.07;4.95;;;12.70;93.20;;;;;;5094458;28;20401;-75
2022/10/26 00:29:10;;;;;;;12.20;4.57;;;12.70;93.50;;;;;;5095011;28;20370;-76
2022/10/26 00:31:36;;;;;;;10.15;4.53;;;12.80;93.70;;;;;;5094363;28;20378;-77
2022/10/26 00:34:02;;;;;;;11.00;3.85;;;12.80;91.30;;;;;;5095241;28;20385;-76
2022/10/26 00:36:27;;;;;;;15.47;6.50;;;12.90;90.20;;;;;;5095140;28;20471;-76
2022/10/26 00:38:55;;;;;;;9.88;4.10;;;12.80;91.50;;;;;;5095489;28;20382;-76
2022/10/26 00:41:32;;;;;;;10.05;4.13;;;12.90;90.80;;;;;;5095001;28;20390;-76
2022/10/26 00:43:58;;;;;;;13.60;4.28;;;12.90;90.10;;;;;;5076560;28;20465;-76
2022/10/26 00:46:32;;;;;;;9.48;3.85;;;12.80;89.30;;;;;;5094341;28;20409;-76
2022/10/26 00:49:02;;;;;;;9.95;3.50;;;12.90;88.70;;;;;;5094436;28;20451;-76
2022/10/26 00:51:35;;;;;;;8.87;3.80;;;12.80;89.00;;;;;;5094582;28;20362;-77
2022/10/26 00:54:04;;;;;;;7.78;4.25;;;12.80;90.20;;;;;;5095045;28;20747;-76
2022/10/26 00:56:31;;;;;;;10.05;3.83;;;12.70;91.70;;;;;;5095129;28;20797;-76
2022/10/26 00:59:05;;;;;;;5.97;3.45;;;12.70;92.10;;;;;;5096499;28;20476;-76
2022/10/26 01:01:32;;;;;;;8.70;3.90;;;12.70;92.20;;;;;;5098567;28;20398;-75
2022/10/26 01:03:59;;;;;;;8.77;3.60;;;12.70;92.50;;;;;;5098801;28;20385;-76
2022/10/26 01:06:29;;;;;;;7.93;3.72;;;12.70;92.90;;;;;;5105286;28;20406;-76
2022/10/26 01:08:54;;;;;;;8.43;3.80;;;12.60;95.20;;;;;;5105987;28;20390;-76
2022/10/26 01:11:20;;;;;;;11.37;4.23;;;12.70;94.30;;;;;;5105203;28;20378;-76
2022/10/26 01:13:47;;;;;;;15.70;4.80;;;12.70;94.80;;;;;;5094326;28;20374;-77
2022/10/26 01:16:37;;;;;;;9.20;4.47;;;12.80;94.20;;;;;;5093804;28;20431;-75
2022/10/26 01:19:36;;;;;;;10.00;4.13;;;12.80;94.10;;;;;;5093790;28;20386;-76
2022/10/26 01:22:07;;;;;;;10.57;4.50;;;12.80;92.80;;;;;;5093637;28;20927;-76
2022/10/26 01:25:02;;;;;;;9.10;4.33;;;12.90;93.00;;;;;;5059324;28;20390;-76
2022/10/26 01:27:44;;;;;;;10.32;4.18;;;12.90;92.30;;;;;;5093425;28;20456;-75
2022/10/26 01:30:15;;;;;;;11.60;4.37;;;13.00;91.10;;;;;;5093771;28;20827;-76
2022/10/26 01:32:55;;;;;;;13.90;4.65;;;13.00;91.20;;;;;;5093350;28;20716;-76
2022/10/26 01:35:29;;;;;;;7.25;3.10;;;12.90;92.70;;;;;;5093663;28;20865;-76
2022/10/26 01:38:03;;;;;;;12.30;4.40;;;13.00;91.10;;;;;;5093377;28;20743;-75
2022/10/26 01:40:45;;;;;;;10.38;3.95;;;13.00;92.00;;;;;;5095496;28;20373;-75
2022/10/26 01:43:13;;;;;;;9.80;4.40;;;13.00;91.40;;;;;;5100314;28;20378;-75
2022/10/26 01:45:43;;;;;;;13.00;4.40;;;13.10;91.40;;;;;;5100591;28;20390;-75
2022/10/26 01:48:12;;;;;;;9.73;3.40;;;13.10;90.70;;;;;;5095934;28;20485;-76
2022/10/26 01:50:39;;;;;;;6.95;3.17;;;13.10;90.10;;;;;;5095161;28;20378;-75
2022/10/26 01:53:05;;;;;;;11.80;4.50;;;13.20;88.00;;;;;;5094216;28;20390;-75
2022/10/26 01:55:40;;;;;;;8.73;3.47;;;13.20;88.20;;;;;;5093311;28;20410;-76
2022/10/26 01:58:30;;;;;;;8.98;3.28;;;13.30;87.20;;;;;;5093546;28;20392;-76
2022/10/26 02:01:22;;;;;;;6.35;3.60;;;13.30;85.70;;;;;;5092877;28;20472;-76
2022/10/26 02:04:13;;;;;;;7.30;3.50;;;13.40;85.70;;;;;;5079738;28;20386;-75
2022/10/26 02:07:02;;;;;;;6.82;3.30;;;13.40;85.50;;;;;;5074931;28;20410;-76
2022/10/26 02:09:53;;;;;;;11.20;4.30;;;13.50;84.70;;;;;;5093988;28;20792;-76
2022/10/26 02:12:34;;;;;;;9.25;2.95;;;13.50;85.20;;;;;;5078464;28;20426;-76
2022/10/26 02:15:05;;;;;;;9.43;4.32;;;13.50;83.90;;;;;;5074771;28;20388;-76
2022/10/26 02:17:56;;;;;;;6.32;3.58;;;13.50;84.20;;;;;;5092133;28;20466;-76
2022/10/26 02:20:31;;;;;;;8.80;3.20;;;13.50;84.00;;;;;;5092010;28;20451;-76
2022/10/26 02:23:01;;;;;;;9.43;4.57;;;13.60;84.10;;;;;;5073700;28;20416;-76
2022/10/26 02:25:30;;;;;;;8.75;2.90;;;13.60;83.40;;;;;;5092055;28;20746;-76
2022/10/26 02:28:01;;;;;;;8.05;3.35;;;13.70;83.20;;;;;;5091798;28;20410;-76
2022/10/26 02:30:27;;;;;;;10.25;4.30;;;13.60;82.60;;;;;;5091875;28;20436;-76
2022/10/26 02:32:55;;;;;;;13.73;5.40;;;13.60;83.00;;;;;;5092370;28;20460;-76
2022/10/26 02:35:28;;;;;;;29.53;6.70;;;13.60;84.70;;;;;;5091933;28;20370;-76
2022/10/26 02:37:55;;;;;;;11.55;4.10;;;13.70;84.30;;;;;;5091639;28;20880;-76
2022/10/26 02:40:25;;;;;;;13.40;4.20;;;13.70;83.20;;;;;;5091776;28;20917;-76
2022/10/26 02:42:52;;;;;;;8.82;3.40;;;13.70;82.50;;;;;;5091723;28;20385;-76
2022/10/26 02:45:24;;;;;;;11.82;4.32;;;13.80;80.70;;;;;;5091816;28;20769;-75
2022/10/26 02:47:51;;;;;;;10.38;3.78;;;13.90;81.20;;;;;;5103703;22;20802;-72
2022/10/26 02:50:18;;;;;;;14.02;4.07;;;13.80;80.80;;;;;;5092977;28;20746;-73
2022/10/26 02:52:55;;;;;;;9.13;4.43;;;13.90;80.90;;;;;;5092738;28;20496;-72
2022/10/26 02:55:33;;;;;;;8.05;3.65;;;13.90;81.60;;;;;;5092023;28;20405;-72
2022/10/26 02:58:03;;;;;;;12.48;4.10;;;13.80;81.20;;;;;;5091586;28;20792;-74
2022/10/26 03:00:30;;;;;;;14.20;4.63;;;13.90;81.60;;;;;;5091521;28;20374;-74
2022/10/26 03:02:58;;;;;;;8.25;3.75;;;14.00;79.60;;;;;;5091428;28;20822;-73
2022/10/26 03:05:26;;;;;;;13.23;4.80;;;14.00;79.20;;;;;;5091527;28;20390;-72
2022/10/26 03:07:53;;;;;;;10.20;4.15;;;14.00;79.60;;;;;;5091253;28;20390;-73
2022/10/26 03:10:19;;;;;;;9.30;4.13;;;14.00;79.40;;;;;;5093657;28;20461;-73
2022/10/26 03:12:45;;;;;;;10.10;4.00;;;14.10;78.70;;;;;;5092768;28;20416;-73
2022/10/26 03:15:11;;;;;;;9.03;4.00;;;14.10;78.60;;;;;;5092937;28;20389;-73
2022/10/26 03:17:36;;;;;;;9.93;4.00;;;14.00;79.20;;;;;;5093330;28;20418;-72
2022/10/26 03:20:02;;;;;;;10.17;4.30;;;14.10;78.30;;;;;;5093935;28;20408;-72
2022/10/26 03:22:28;;;;;;;7.90;3.20;;;14.10;79.00;;;;;;5093809;28;20382;-73
2022/10/26 03:24:53;;;;;;;6.40;3.90;;;14.00;78.80;;;;;;5093912;28;20394;-74
2022/10/26 03:27:19;;;;;;;9.43;4.40;;;14.00;79.30;;;;;;5092625;28;20744;-74
2022/10/26 03:29:45;;;;;;;8.30;3.43;;;14.10;79.00;;;;;;5076604;28;20439;-73
2022/10/26 03:32:10;;;;;;;10.50;3.80;;;14.20;77.50;;;;;;5095218;28;20914;-74
2022/10/26 03:34:36;;;;;;;12.35;4.30;;;14.20;76.90;;;;;;5096348;28;20382;-73
2022/10/26 03:37:01;;;;;;;10.13;3.93;;;14.10;77.90;;;;;;5080306;28;20405;-74
2022/10/26 03:39:27;;;;;;;8.87;3.77;;;14.20;78.00;;;;;;5101290;28;20401;-73
2022/10/26 03:41:54;;;;;;;9.55;3.80;;;14.20;77.40;;;;;;5102514;28;20831;-74
2022/10/26 03:44:19;;;;;;;8.20;3.45;;;14.10;78.70;;;;;;5103244;28;20390;-73
2022/10/26 03:46:45;;;;;;;7.63;3.43;;;14.10;78.20;;;;;;5105594;28;20396;-74
2022/10/26 03:49:10;;;;;;;8.98;3.80;;;14.10;78.50;;;;;;5075754;28;20394;-74
2022/10/26 03:51:36;;;;;;;7.10;3.60;;;14.10;79.00;;;;;;5076255;28;20401;-75
2022/10/26 03:54:02;;;;;;;11.63;3.80;;;14.00;80.10;;;;;;5097249;28;20442;-75
2022/10/26 03:56:27;;;;;;;10.07;4.00;;;14.00;79.80;;;;;;5095531;28;20378;-74
2022/10/26 03:58:53;;;;;;;8.47;4.30;;;14.00;80.60;;;;;;5096302;28;20378;-76
2022/10/26 04:01:18;;;;;;;12.63;4.43;;;14.00;80.80;;;;;;5077570;28;20452;-75
2022/10/26 04:03:44;;;;;;;10.40;3.10;;;14.00;79.80;;;;;;5096440;28;20736;-74
2022/10/26 04:06:09;;;;;;;9.00;4.07;;;14.10;79.10;;;;;;5091938;28;20390;-74
2022/10/26 04:08:35;;;;;;;13.30;2.80;;;14.10;79.30;;;;;;5092722;28;20389;-74
2022/10/26 04:11:01;;;;;;;12.70;4.00;;;14.20;78.70;;;;;;5091941;28;20398;-74
2022/10/26 04:13:26;;;;;;;9.25;3.55;;;14.20;78.00;;;;;;5074864;28;20751;-75
2022/10/26 04:15:52;;;;;;;8.97;3.30;;;14.20;77.90;;;;;;5092878;28;20874;-75
2022/10/26 04:18:17;;;;;;;13.73;3.80;;;14.30;78.40;;;;;;5093979;28;20389;-73
2022/10/26 04:20:43;;;;;;;10.57;3.30;;;14.40;76.10;;;;;;5094591;28;20425;-74
2022/10/26 04:23:16;;;;;;;8.02;4.00;;;14.40;75.80;;;;;;5075569;28;20386;-75
2022/10/26 04:25:42;;;;;;;9.90;4.00;;;14.40;76.50;;;;;;5092266;28;20886;-75
2022/10/26 04:28:12;;;;;;;8.38;3.85;;;14.40;75.90;;;;;;5091205;28;20409;-73
2022/10/26 04:30:38;;;;;;;9.88;4.28;;;14.50;76.10;;;;;;5091656;28;20752;-74
2022/10/26 04:33:05;;;;;;;12.88;4.63;;;14.40;76.40;;;;;;5091031;28;20381;-75
2022/10/26 04:35:31;;;;;;;8.02;3.60;;;14.40;77.20;;;;;;5091884;28;20370;-74
2022/10/26 04:37:58;;;;;;;9.55;3.65;;;14.50;77.10;;;;;;5091624;28;20382;-74
2022/10/26 04:40:23;;;;;;;8.55;3.60;;;14.50;76.10;;;;;;5092650;28;20386;-75
2022/10/26 04:42:49;;;;;;;8.00;3.20;;;14.50;76.40;;;;;;5092317;28;20444;-74
2022/10/26 04:45:15;;;;;;;10.48;3.88;;;14.50;75.10;;;;;;5094456;28;20385;-73
2022/10/26 04:47:41;;;;;;;12.73;4.22;;;14.60;75.60;;;;;;5094866;28;20418;-74
2022/10/26 04:50:09;;;;;;;9.48;3.67;;;14.60;75.80;;;;;;5096117;28;20386;-73
2022/10/26 04:52:35;;;;;;;8.35;3.60;;;14.50;75.20;;;;;;5094490;28;20481;-73
2022/10/26 04:55:04;;;;;;;8.40;3.35;;;14.60;74.20;;;;;;5094630;28;20923;-75
2022/10/26 04:57:31;;;;;;;17.30;4.50;;;14.60;75.20;;;;;;5095597;28;20390;-72
2022/10/26 04:59:56;;;;;;;7.47;3.88;;;14.60;75.50;;;;;;5078998;28;20401;-74
2022/10/26 05:02:22;;;;;;;11.33;3.40;;;14.60;75.60;;;;;;5104611;28;20389;-75
2022/10/26 05:04:47;;;;;;;12.60;3.70;;;14.60;74.60;;;;;;5107166;28;20849;-75
2022/10/26 05:07:13;;;;;;;7.70;3.60;;;14.60;75.40;;;;;;5106331;28;20408;-74
2022/10/26 05:09:38;;;;;;;9.82;3.80;;;14.60;76.00;;;;;;5105412;28;20401;-74
2022/10/26 05:12:04;;;;;;;13.40;3.80;;;14.50;76.90;;;;;;5099219;28;20373;-75
2022/10/26 05:14:29;;;;;;;11.30;3.50;;;14.60;76.20;;;;;;5099083;28;20370;-74
2022/10/26 05:16:56;;;;;;;11.93;3.17;;;14.70;75.00;;;;;;5101442;28;20378;-73
2022/10/26 05:19:22;;;;;;;10.73;4.00;;;14.70;74.50;;;;;;5101569;28;20426;-74
2022/10/26 05:21:47;;;;;;;15.18;4.72;;;14.60;74.30;;;;;;5100512;28;20382;-74
2022/10/26 05:24:13;;;;;;;7.30;3.25;;;14.60;74.90;;;;;;5102970;28;20382;-74
2022/10/26 05:26:38;;;;;;;8.10;3.70;;;14.60;75.20;;;;;;5100579;28;20416;-74
2022/10/26 05:29:04;;;;;;;10.70;4.57;;;14.60;75.40;;;;;;5098638;28;20409;-74
2022/10/26 05:31:29;;;;;;;33.38;5.50;;;14.60;75.80;;;;;;5096226;28;20378;-73
2022/10/26 05:33:55;;;;;;;11.52;3.70;;;14.60;76.90;;;;;;5076129;28;20447;-73
2022/10/26 05:36:21;;;;;;;12.40;4.10;;;14.60;76.90;;;;;;5094593;28;20758;-74
2022/10/26 05:38:46;;;;;;;9.13;3.60;;;14.50;78.40;;;;;;5099255;28;20440;-73
2022/10/26 05:41:12;;;;;;;17.13;4.63;;;14.40;78.90;;;;;;5102528;28;20454;-74
2022/10/26 05:43:37;;;;;;;15.90;4.63;;;14.40;79.50;;;;;;5102837;28;20382;-74
2022/10/26 05:46:03;;;;;;;31.15;5.53;;;14.40;79.50;;;;;;5093868;28;20747;-73
2022/10/26 05:48:29;;;;;;;15.75;4.00;;;14.40;80.10;;;;;;5093121;28;20491;-75
2022/10/26 05:50:59;;;;;;;20.88;5.40;;;14.40;80.40;;;;;;5093874;28;20378;-74
2022/10/26 05:53:25;;;;;;;12.38;4.40;;;14.50;80.40;;;;;;5093269;28;20402;-73
2022/10/26 05:55:51;;;;;;;10.35;3.70;;;14.50;79.80;;;;;;5074765;28;20412;-74
2022/10/26 05:58:17;;;;;;;14.23;4.90;;;14.50;79.50;;;;;;5075901;28;20390;-73
2022/10/26 06:01:16;;;;;;;11.63;3.27;;;14.40;80.20;;;;;;5076239;28;20561;-76
2022/10/26 06:04:08;;;;;;;12.27;4.40;;;14.40;79.70;;;;;;5094141;28;20374;-73
2022/10/26 06:06:40;;;;;;;10.13;4.10;;;14.40;79.90;;;;;;5046131;28;20786;-75
2022/10/26 06:09:11;;;;;;;8.87;3.50;;;14.50;79.40;;;;;;5092649;28;20859;-75
2022/10/26 06:11:37;;;;;;;8.17;3.57;;;14.50;79.60;;;;;;5093312;28;20479;-74
2022/10/26 06:14:03;;;;;;;11.25;3.70;;;14.50;78.70;;;;;;5093552;28;20750;-74
2022/10/26 06:16:56;;;;;;;8.85;4.43;;;14.50;77.80;;;;;;5093494;28;20472;-74
2022/10/26 06:19:40;;;;;;;9.73;3.78;;;14.60;77.80;;;;;;5092950;28;20414;-73
2022/10/26 06:22:30;;;;;;;9.30;3.90;;;14.50;78.10;;;;;;5092557;28;20382;-74
2022/10/26 06:25:24;;;;;;;7.90;3.70;;;14.50;78.40;;;;;;5093459;28;20443;-75
2022/10/26 06:28:17;;;;;;;6.55;2.95;;;14.60;77.50;;;;;;5075243;28;20402;-75
2022/10/26 06:30:43;;;;;;;14.32;4.30;;;14.60;76.80;;;;;;5093641;28;20378;-74
2022/10/26 06:33:11;;;;;;;13.33;3.63;;;14.60;76.50;;;;;;5095037;28;20379;-73
2022/10/26 06:35:54;;;;;;;6.65;3.60;;;14.60;75.90;;;;;;5077647;28;20738;-75
2022/10/26 06:38:22;;;;;;;6.32;3.10;;;14.60;75.60;;;;;;5097930;28;20397;-75
2022/10/26 06:40:51;;;;;;;12.45;3.88;;;14.70;74.60;;;;;;5079694;28;20402;-74
2022/10/26 06:43:25;;;;;;;10.02;3.80;;;14.80;73.00;;;;;;5097487;28;20390;-74
2022/10/26 06:45:59;;;;;;;11.95;3.75;;;14.80;72.10;;;;;;5099673;28;20941;-75
2022/10/26 06:48:28;;;;;;;12.10;4.07;;;14.80;71.60;;;;;;5098755;28;20410;-76
2022/10/26 06:50:54;;;;;;;9.85;4.90;;;14.90;70.80;;;;;;5093544;28;20386;-76
2022/10/26 06:53:25;;;;;;;10.30;3.55;;;14.90;71.00;;;;;;5092481;28;20748;-74
2022/10/26 06:55:51;;;;;;;7.07;3.65;;;15.00;69.30;;;;;;5092562;28;20855;-73
2022/10/26 06:58:20;;;;;;;8.98;4.30;;;15.00;68.50;;;;;;5074279;28;20471;-74
2022/10/26 07:00:48;;;;;;;8.60;4.07;;;15.00;69.30;;;;;;5092608;28;20392;-74
2022/10/26 07:03:14;;;;;;;7.90;4.10;;;14.90;69.70;;;;;;5093128;28;20374;-74
2022/10/26 07:05:41;;;;;;;11.27;4.30;;;15.00;70.20;;;;;;5092329;28;20896;-75
2022/10/26 07:08:07;;;;;;;13.63;4.15;;;14.90;70.30;;;;;;5092349;28;20405;-75
2022/10/26 07:10:34;;;;;;;8.00;2.83;;;15.00;71.30;;;;;;5092309;28;20390;-74
2022/10/26 07:13:00;;;;;;;10.63;4.00;;;15.00;68.90;;;;;;5092070;28;20720;-74
2022/10/26 07:15:26;;;;;;;7.95;3.70;;;15.10;69.40;;;;;;5092399;28;20382;-75
2022/10/26 07:17:51;;;;;;;8.38;3.80;;;15.10;68.00;;;;;;5092744;28;20389;-77
2022/10/26 07:20:19;;;;;;;10.93;3.43;;;15.20;67.30;;;;;;5092537;28;20389;-76
2022/10/26 07:22:49;;;;;;;7.60;3.13;;;15.30;67.60;;;;;;5092547;28;20382;-73
2022/10/26 07:25:15;;;;;;;8.68;3.65;;;15.30;66.30;;;;;;5092260;28;20870;-74
2022/10/26 07:27:41;;;;;;;8.20;3.43;;;15.30;65.90;;;;;;5091945;28;20413;-74
2022/10/26 07:30:07;;;;;;;16.83;4.32;;;15.30;66.00;;;;;;5091307;28;20385;-76
2022/10/26 07:32:32;;;;;;;8.70;3.38;;;15.30;66.70;;;;;;5092807;28;20410;-75
2022/10/26 07:34:58;;;;;;;5.40;3.40;;;15.30;65.60;;;;;;5093836;28;20381;-76
2022/10/26 07:37:23;;;;;;;11.45;3.55;;;15.30;66.70;;;;;;5093727;28;20420;-75
2022/10/26 07:39:49;;;;;;;9.70;3.60;;;15.30;67.00;;;;;;5093308;28;20477;-76
2022/10/26 07:42:15;;;;;;;9.07;2.90;;;15.40;67.40;;;;;;5094475;28;20377;-74
2022/10/26 07:44:40;;;;;;;10.90;3.92;;;15.40;66.60;;;;;;5101548;28;20440;-75
2022/10/26 07:47:06;;;;;;;8.55;3.80;;;15.40;67.20;;;;;;5109853;28;20414;-73
2022/10/26 07:49:31;;;;;;;24.35;8.23;;;15.50;67.30;;;;;;5111433;28;20770;-73
2022/10/26 07:51:57;;;;;;;14.47;3.80;;;15.60;66.70;;;;;;5102284;28;20889;-74
2022/10/26 07:54:23;;;;;;;13.05;4.72;;;15.60;65.60;;;;;;5074655;28;20389;-74
2022/10/26 07:56:49;;;;;;;9.52;4.10;;;15.60;65.80;;;;;;5096013;28;20740;-74
2022/10/26 07:59:15;;;;;;;8.43;3.75;;;15.50;66.20;;;;;;5101892;28;20382;-74
2022/10/26 08:01:41;;;;;;;11.43;3.63;;;15.50;67.40;;;;;;5096633;28;20402;-73
2022/10/26 08:04:07;;;;;;;13.15;5.30;;;15.40;69.20;;;;;;5097395;28;20381;-73
2022/10/26 08:06:32;;;;;;;10.77;5.10;;;15.40;70.50;;;;;;5098990;28;20393;-73
2022/10/26 08:08:58;;;;;;;9.03;4.10;;;15.50;70.20;;;;;;5097733;28;20386;-74
2022/10/26 08:11:23;;;;;;;11.23;4.70;;;15.60;68.10;;;;;;5091931;28;20873;-74
2022/10/26 08:13:53;;;;;;;10.50;4.60;;;15.60;68.70;;;;;;5075103;28;20699;-72
2022/10/26 08:16:20;;;;;;;12.90;4.18;;;15.60;69.30;;;;;;5072936;28;20393;-72
2022/10/26 08:18:50;;;;;;;13.82;3.53;;;15.70;68.60;;;;;;5094741;28;20523;-73
2022/10/26 08:21:16;;;;;;;9.95;3.60;;;15.90;66.10;;;;;;5095616;28;20396;-74
2022/10/26 08:23:42;;;;;;;7.43;3.20;;;16.00;65.20;;;;;;5096628;28;20392;-74
2022/10/26 08:26:11;;;;;;;14.65;4.03;;;16.20;62.80;;;;;;5079465;28;20398;-74
2022/10/26 08:28:37;;;;;;;9.15;3.67;;;16.70;59.50;;;;;;5097320;28;20412;-74
2022/10/26 08:31:03;;;;;;;8.20;3.30;;;17.00;55.40;;;;;;5097865;28;20389;-74
2022/10/26 08:33:29;;;;;;;7.00;3.10;;;17.00;53.70;;;;;;5098459;28;20386;-74
2022/10/26 08:35:56;;;;;;;9.23;3.65;;;17.10;53.70;;;;;;5104943;28;20386;-73
2022/10/26 08:38:23;;;;;;;7.23;3.00;;;17.10;53.10;;;;;;5103041;28;20397;-73
2022/10/26 08:40:49;;;;;;;6.05;3.00;;;17.20;51.70;;;;;;5106475;28;20808;-74
2022/10/26 08:43:25;;;;;;;12.13;3.90;;;17.10;52.00;;;;;;5099719;28;20382;-75
2022/10/26 08:46:20;;;;;;;7.43;2.90;;;17.00;52.40;;;;;;5096389;28;20389;-75
2022/10/26 08:49:18;;;;;;;16.50;3.60;;;17.10;51.70;;;;;;5070111;28;20430;-75
2022/10/26 08:51:44;;;;;;;6.60;3.13;;;17.10;52.30;;;;;;5059180;28;20968;-72
2022/10/26 08:54:36;;;;;;;9.32;2.90;;;17.20;50.80;;;;;;5096161;28;20753;-74
2022/10/26 08:57:11;;;;;;;11.53;3.20;;;17.20;51.60;;;;;;5076238;28;20460;-73
2022/10/26 08:59:45;;;;;;;12.50;3.67;;;17.20;50.70;;;;;;5092928;28;20386;-73
2022/10/26 09:02:12;;;;;;;6.03;2.95;;;17.30;51.10;;;;;;5090566;28;20398;-74
2022/10/26 09:04:38;;;;;;;19.20;4.00;;;17.40;49.50;;;;;;5073161;28;20752;-73
2022/10/26 09:07:07;;;;;;;8.10;3.03;;;17.60;47.90;;;;;;5091558;28;20420;-71
2022/10/26 09:09:53;;;;;;;11.85;3.25;;;17.90;46.50;;;;;;5091649;28;20491;-73
2022/10/26 09:12:26;;;;;;;12.50;3.38;;;18.00;45.40;;;;;;5090755;28;20386;-72
2022/10/26 09:15:19;;;;;;;13.05;5.40;;;17.90;45.30;;;;;;5091229;28;20466;-72
2022/10/26 09:18:05;;;;;;;8.13;3.13;;;17.80;47.20;;;;;;5083951;28;20394;-75
2022/10/26 09:20:51;;;;;;;10.32;3.60;;;17.80;47.20;;;;;;5099441;28;20405;-74
2022/10/26 09:23:19;;;;;;;13.10;3.90;;;18.00;46.70;;;;;;5098490;28;20497;-73
2022/10/26 09:25:54;;;;;;;9.98;3.40;;;18.10;46.30;;;;;;5080813;28;20405;-74
2022/10/26 09:28:20;;;;;;;8.93;3.80;;;18.10;46.30;;;;;;5101006;28;20394;-75
2022/10/26 09:30:47;;;;;;;11.57;4.10;;;18.10;46.20;;;;;;5079299;28;20511;-74
2022/10/26 09:33:19;;;;;;;13.73;3.97;;;18.00;46.60;;;;;;5090914;28;20383;-72
2022/10/26 09:35:57;;;;;;;12.82;4.60;;;17.80;46.40;;;;;;5091190;28;20398;-73
2022/10/26 09:39:10;;;;;;;11.98;3.30;;;17.80;47.10;;;;;;5091406;28;20758;-74
2022/10/26 09:41:37;;;;;;;12.30;3.90;;;17.80;47.80;;;;;;4989665;28;20452;-73
2022/10/26 09:44:14;;;;;;;12.77;3.83;;;17.80;47.20;;;;;;4989453;28;20406;-74
2022/10/26 09:46:50;;;;;;;12.45;5.50;;;17.90;48.10;;;;;;5039333;28;20392;-74
2022/10/26 09:49:19;;;;;;;9.57;3.90;;;18.00;47.60;;;;;;5073073;28;20749;-74
2022/10/26 09:51:46;;;;;;;10.90;3.00;;;18.10;46.40;;;;;;5085795;28;20585;-73
2022/10/26 09:54:17;;;;;;;12.43;3.50;;;18.10;45.60;;;;;;5109929;28;20386;-73
2022/10/26 09:56:47;;;;;;;10.32;3.70;;;18.10;45.30;;;;;;5112304;28;20719;-71
2022/10/26 09:59:14;;;;;;;12.63;4.10;;;18.10;46.00;;;;;;5105491;28;20762;-75
2022/10/26 10:01:40;;;;;;;9.65;3.45;;;18.10;46.10;;;;;;5092578;28;20446;-74
2022/10/26 10:04:11;;;;;;;16.08;8.88;;;18.10;46.40;;;;;;5092060;28;20385;-74
2022/10/26 10:06:40;;;;;;;18.67;5.85;;;18.10;46.20;;;;;;5090756;28;20878;-75
2022/10/26 10:09:10;;;;;;;9.35;3.70;;;18.30;46.30;;;;;;5072711;28;20402;-74
2022/10/26 10:11:45;;;;;;;7.40;3.80;;;18.30;45.00;;;;;;5072279;28;20437;-74
2022/10/26 10:14:16;;;;;;;10.10;3.50;;;18.30;45.20;;;;;;5090529;28;20382;-73
2022/10/26 10:16:56;;;;;;;7.75;3.67;;;18.40;44.40;;;;;;5090750;28;20390;-73
2022/10/26 10:19:30;;;;;;;25.58;5.47;;;18.40;44.60;;;;;;5091489;28;20406;-74
2022/10/26 10:22:07;;;;;;;13.15;4.35;;;18.40;45.30;;;;;;5089317;28;20378;-75
2022/10/26 10:24:35;;;;;;;18.70;4.78;;;18.50;45.30;;;;;;5057124;28;20887;-73
2022/10/26 10:27:14;;;;;;;22.10;4.78;;;18.50;45.10;;;;;;5089783;28;20406;-74
2022/10/26 10:29:48;;;;;;;20.58;5.63;;;18.70;44.60;;;;;;5057687;28;20452;-74
2022/10/26 10:32:17;;;;;;;13.90;4.10;;;18.80;45.00;;;;;;5075374;28;20399;-74
2022/10/26 10:34:43;;;;;;;13.55;4.25;;;18.80;44.50;;;;;;5090224;28;20439;-74
2022/10/26 10:37:33;;;;;;;14.67;3.90;;;18.80;44.00;;;;;;5089598;28;20449;-73
2022/10/26 10:40:16;;;;;;;13.45;4.07;;;18.90;44.20;;;;;;5090170;28;20462;-74
2022/10/26 10:42:46;;;;;;;13.23;4.20;;;19.00;43.60;;;;;;5090417;28;20704;-74
2022/10/26 10:45:23;;;;;;;10.35;3.80;;;19.00;43.70;;;;;;5082753;28;20407;-75
2022/10/26 10:48:12;;;;;;;18.60;4.07;;;19.10;42.80;;;;;;5075193;28;20964;-74
2022/10/26 10:50:53;;;;;;;10.40;3.28;;;19.10;43.20;;;;;;5096614;28;20874;-73
2022/10/26 10:53:24;;;;;;;13.90;3.72;;;19.20;43.20;;;;;;5099218;28;20374;-75
2022/10/26 10:56:22;;;;;;;7.97;3.80;;;19.20;43.10;;;;;;5097645;28;20439;-73
2022/10/26 10:58:54;;;;;;;10.00;4.00;;;19.40;42.60;;;;;;5100808;28;20374;-76
2022/10/26 11:01:22;;;;;;;15.45;4.38;;;19.40;42.70;;;;;;5100271;28;20393;-75
2022/10/26 11:04:04;;;;;;;10.77;4.40;;;19.40;42.30;;;;;;5101831;28;20405;-73
2022/10/26 11:06:35;;;;;;;12.30;3.70;;;19.40;42.80;;;;;;5084116;28;20393;-73
2022/10/26 11:09:11;;;;;;;15.75;5.00;;;19.60;42.00;;;;;;5104185;28;20757;-75
2022/10/26 11:11:49;;;;;;;8.30;3.60;;;19.90;41.20;;;;;;5082657;28;20390;-75
2022/10/26 11:14:29;;;;;;;13.98;4.18;;;20.10;39.90;;;;;;5079584;28;20921;-74
2022/10/26 11:16:57;;;;;;;9.50;3.97;;;20.00;40.40;;;;;;5100320;28;20393;-75
2022/10/26 11:19:31;;;;;;;18.85;4.30;;;20.00;40.10;;;;;;5086405;28;20398;-74
2022/10/26 11:21:57;;;;;;;9.13;3.70;;;19.90;41.00;;;;;;5092561;28;20484;-76
2022/10/26 11:24:28;;;;;;;6.77;3.40;;;20.10;41.40;;;;;;5091320;28;20454;-75
2022/10/26 11:27:00;;;;;;;13.30;3.40;;;20.30;41.60;;;;;;5091327;28;20497;-74
2022/10/26 11:29:58;;;;;;;7.65;3.08;;;20.30;40.30;;;;;;5091467;28;20389;-73
2022/10/26 11:32:44;;;;;;;10.93;3.30;;;20.50;39.20;;;;;;5091172;28;20374;-73
2022/10/26 11:35:23;;;;;;;9.15;2.90;;;20.60;38.70;;;;;;5091509;28;20409;-74
2022/10/26 11:38:04;;;;;;;4.90;2.65;;;20.80;38.50;;;;;;5091636;28;20381;-74
2022/10/26 11:40:51;;;;;;;5.90;2.33;;;20.70;38.00;;;;;;5093634;28;20859;-76
2022/10/26 11:43:45;;;;;;;10.23;2.78;;;20.80;37.80;;;;;;5091285;28;20874;-74
2022/10/26 11:46:25;;;;;;;6.28;2.20;;;20.80;37.90;;;;;;5091434;28;20386;-75
2022/10/26 11:49:32;;;;;;;6.18;1.90;;;20.70;37.40;;;;;;5073361;28;20417;-76
2022/10/26 11:52:21;;;;;;;5.60;1.88;;;20.80;37.40;;;;;;5041355;28;20742;-75
2022/10/26 11:54:56;;;;;;;4.18;2.10;;;20.80;37.00;;;;;;5096422;28;20408;-75
2022/10/26 11:57:23;;;;;;;7.40;2.20;;;20.70;37.50;;;;;;5099408;28;20409;-75
2022/10/26 11:59:53;;;;;;;5.15;2.30;;;20.70;37.90;;;;;;5103516;28;20476;-75
2022/10/26 12:02:21;;;;;;;6.45;2.00;;;20.80;38.10;;;;;;5103299;28;20458;-74
2022/10/26 12:05:16;;;;;;;6.88;1.85;;;20.80;37.50;;;;;;5103852;28;20389;-74
2022/10/26 12:07:51;;;;;;;4.30;2.10;;;20.90;37.50;;;;;;5052374;28;20959;-75
2022/10/26 12:10:27;;;;;;;8.10;2.10;;;21.10;37.20;;;;;;5095666;28;20478;-75
2022/10/26 12:13:18;;;;;;;5.22;1.92;;;21.10;36.40;;;;;;5095090;28;20382;-74
2022/10/26 12:16:00;;;;;;;3.07;1.43;;;21.10;36.60;;;;;;5095219;28;20386;-72
2022/10/26 12:18:38;;;;;;;4.45;2.10;;;21.20;36.90;;;;;;5096061;28;20397;-75
2022/10/26 12:21:07;;;;;;;6.50;2.20;;;21.10;36.30;;;;;;5077403;28;20386;-74
2022/10/26 12:23:35;;;;;;;6.50;2.15;;;21.10;37.30;;;;;;5096737;28;20386;-75
2022/10/26 12:26:22;;;;;;;7.78;2.40;;;21.20;37.60;;;;;;5096830;28;20920;-75
2022/10/26 12:29:01;;;;;;;8.90;2.20;;;21.30;37.10;;;;;;5077647;28;20482;-76
2022/10/26 12:31:35;;;;;;;7.70;2.33;;;21.40;36.40;;;;;;5078232;28;20389;-75
2022/10/26 12:34:35;;;;;;;7.07;2.07;;;21.50;35.80;;;;;;5095167;28;20418;-74
2022/10/26 12:37:00;;;;;;;6.65;2.20;;;21.60;35.30;;;;;;5038912;28;20386;-75
2022/10/26 12:39:36;;;;;;;7.43;2.20;;;21.70;34.80;;;;;;5095013;28;20877;-75
2022/10/26 12:42:04;;;;;;;5.63;2.20;;;21.70;35.00;;;;;;5094547;28;20884;-74
2022/10/26 12:44:31;;;;;;;5.45;1.95;;;21.80;34.80;;;;;;5094528;28;20386;-75
2022/10/26 12:46:57;;;;;;;6.80;2.00;;;21.90;34.40;;;;;;5094240;28;20497;-74
2022/10/26 12:49:59;;;;;;;4.38;1.80;;;21.80;34.30;;;;;;5095445;28;20410;-73
2022/10/26 12:52:47;;;;;;;12.35;2.28;;;21.60;34.80;;;;;;5076511;28;20380;-74
2022/10/26 12:55:22;;;;;;;7.35;2.10;;;21.40;36.40;;;;;;5076505;28;20436;-76
2022/10/26 12:58:12;;;;;;;11.00;2.50;;;21.40;36.60;;;;;;5094835;28;20388;-75
2022/10/26 13:00:47;;;;;;;9.98;2.78;;;21.40;36.70;;;;;;5095150;28;20374;-74
2022/10/26 13:03:15;;;;;;;9.90;2.70;;;21.40;36.40;;;;;;5078219;28;20386;-74
2022/10/26 13:06:26;;;;;;;9.73;2.50;;;21.40;36.70;;;;;;5095927;28;20377;-74
2022/10/26 13:08:54;;;;;;;7.93;3.10;;;21.50;35.90;;;;;;5074059;28;20410;-74